• Join FlightAware (Why Join?)
  • Login
  • US Flag 
11:58PM EDT


 

Airport Tracker/Info


-or-


 

Live Flight TrackerFlight Track Log ✈ SWA3675 ✈ 28-Apr-2013 ✈ KALB - KBWI

Flight Track Log - Related Links

Times and Time Zones

All times are in EDT time to prevent confusion due to time zone crossing. See the SWA3675 flight status page for this flight to view local times or setup timezone preferences in your user account.

Time Position Orientation Groundspeed Altitude Reporting Facility
EDT Latitude Longitude Course Direction KTS MPH feet Rate Location/Type
05:54PM 42.7297 -73.8081 180° South 156 180 1,400  Level Boston Center
05:55PM 42.7108 -73.8219 208° Southwest 157 181 2,400 1,560 Climbing Boston Center
05:55PM 42.7250 -73.8561 299° West 222 255 3,100 1,860 Climbing Boston Center
05:56PM 42.6892 -73.9003 222° Southwest 136 157 5,400 2,820 Climbing Boston Center
05:57PM 42.6164 -73.8817 169° South 161 185 8,800 3,540 Climbing Boston Center
05:58PM 42.5439 -73.8519 163° South 233 268 12,500 3,360 Climbing Boston Center
05:59PM 42.4544 -73.8244 167° South 288 331 16,200 3,000 Climbing Boston Center
06:00PM 42.2880 -74.1932 180° South  Level Estimated
06:00PM 42.3506 -73.7914 167° South 318 366 19,200  Level Boston Center
06:01PM 42.2489 -73.7611 168° South 339 390 21,300 2,220 Climbing Boston Center
06:02PM 42.1389 -73.7253 166° South 382 440 23,700 2,580 Climbing Boston Center
06:03PM 42.0261 -73.7453 188° South 407 468 26,500 2,100 Climbing Boston Center
06:04PM 41.9253 -73.7989 202° Southwest 395 455 28,000 720 Climbing Boston Center
06:05PM 41.8206 -73.8553 202° Southwest 396 456 28,000  Level Boston Center
06:06PM 41.7281 -73.9033 201° Southwest 401 461 28,000  Level Boston Center
06:08PM 41.5442 -74.0031 202° Southwest 420 483 28,000  Level New York Center
06:09PM 41.4364 -74.0614 202° Southwest 415 478 28,000  Level New York Center
06:10PM 41.3331 -74.1142 201° Southwest 415 478 28,000  Level New York Center
06:11PM 41.2194 -74.1556 195° South 420 483 28,000  Level New York Center
06:12PM 41.1078 -74.1967 196° South 426 490 28,000  Level New York Center
06:13PM 41.0036 -74.2631 206° Southwest 426 490 28,000  Level New York Center
06:14PM 40.8997 -74.3317 207° Southwest 421 484 28,000  Level New York Center
06:15PM 40.8017 -74.4006 208° Southwest 416 479 28,000  Level New York Center
06:16PM 40.7233 -74.5058 226° Southwest 398 458 28,000  Level New York Center
06:17PM 40.6550 -74.6253 233° Southwest 398 458 28,000  Level New York Center
06:18PM 40.5844 -74.7389 231° Southwest 412 474 28,000  Level New York Center
06:19PM 40.5100 -74.8464 228° Southwest 412 474 28,000 -600 Level New York Center
06:20PM 40.4356 -74.9511 227° Southwest 417 480 26,900 -1,620 Descending New York Center
06:21PM 40.3631 -75.0556 228° Southwest 406 467 24,800 -2,160 Descending New York Center
06:22PM 40.2906 -75.1547 226° Southwest 395 455 22,600 -2,160 Descending New York Center
06:23PM 40.2244 -75.2511 228° Southwest 378 435 20,500 -2,220 Descending New York Center
06:24PM 40.1542 -75.3442 225° Southwest 367 422 18,300 -1,320 Descending New York Center
06:25PM 40.0925 -75.4297 227° Southwest 353 406 18,000 -180 Descending New York Center
06:26PM 40.0283 -75.5175 226° Southwest 341 392 18,000 -360 Level New York Center
06:27PM 39.9708 -75.5978 227° Southwest 336 387 17,400 -1,320 Descending New York Center
06:28PM 39.9044 -75.6958 229° Southwest 331 381 15,500 -1,200 Descending New York Center
06:29PM 39.8611 -75.7794 236° Southwest 325 374 15,100 -660 Descending New York Center
06:30PM 39.8336 -75.8856 251° West 298 343 14,200 -1,080 Descending New York Center
06:32PM 39.8167 -76.0500 262° West 289 333 12,400 -900 Descending Potomac TRACON
06:33PM 39.7667 -76.1167 226° Southwest 279 321 12,000 -240 Descending Potomac TRACON
06:34PM 39.7333 -76.2000 243° Southwest 275 316 12,000 -600 Level Potomac TRACON
06:35PM 39.6833 -76.2833 232° Southwest 273 314 10,900 -1,200 Descending Potomac TRACON
06:36PM 39.6500 -76.3667 243° Southwest 268 308 9,600 -1,440 Descending Potomac TRACON
06:37PM 39.6000 -76.4500 232° Southwest 260 299 8,100 -1,560 Descending Potomac TRACON
06:37PM 39.5833 -76.5333 255° West 260 299 6,700 -1,620 Descending Potomac TRACON
06:38PM 39.5333 -76.6000 226° Southwest 264 304 5,000 -1,320 Descending Potomac TRACON
06:40PM 39.4833 -76.7000 237° Southwest 256 295 4,000 -480 Descending Potomac TRACON
06:41PM 39.4500 -76.7667 237° Southwest 253 291 4,000  Level Potomac TRACON
06:42PM 39.3833 -76.8000 201° Southwest 245 282 4,000 -420 Level Potomac TRACON
06:43PM 39.3167 -76.8333 201° Southwest 241 277 3,200 -600 Descending Potomac TRACON
06:44PM 39.2667 -76.8667 207° Southwest 211 243 2,900 -300 Descending Potomac TRACON
06:45PM 39.2167 -76.8667 180° South 165 190 2,700 -300 Descending Potomac TRACON
06:46PM 39.1833 -76.8333 142° Southeast 169 194 2,400 -600 Descending Potomac TRACON
06:47PM 39.1833 -76.7833 90° East 154 177 1,500 -840 Descending Potomac TRACON
06:48PM 39.1833 -76.7333 90° East 131 151 800 -720 Descending Potomac TRACON
06:50PM 39.1667 -76.6667 270° West  Level FlightAware Approximate
06:57PM 39.1754 -76.6683 270° West  Level Estimated
06:58PM 39.1754 -76.6683 270° West  Level Estimated
06:59PM 39.1754 -76.6683 270° West  Level Estimated
07:00PM 39.1754 -76.6683 270° West  Level Estimated
07:01PM 39.1754 -76.6683 270° West  Level Estimated